createdAt,value
2019-05-13T00:00:16.252Z,74.10
2019-05-13T00:02:44.933Z,74.30
2019-05-13T00:05:14.851Z,74.80
2019-05-13T00:07:44.008Z,74.60
2019-05-13T00:10:14.621Z,75.20
2019-05-13T00:12:44.613Z,75.90
2019-05-13T00:15:14.774Z,76.40
2019-05-13T00:17:44.601Z,76.80
2019-05-13T00:20:14.376Z,77.20
2019-05-13T00:22:44.887Z,77.80
2019-05-13T00:25:14.522Z,77.90
2019-05-13T00:27:44.500Z,78.20
2019-05-13T00:30:14.660Z,78.30
2019-05-13T00:32:44.778Z,77.40
2019-05-13T00:35:14.366Z,77.10
2019-05-13T00:37:44.255Z,77.40
2019-05-13T00:40:14.355Z,77.70
2019-05-13T00:42:44.211Z,77.90
2019-05-13T00:45:14.537Z,78.20
2019-05-13T00:47:43.933Z,78.70
2019-05-13T00:50:14.327Z,79.00
2019-05-13T00:53:04.382Z,79.30
2019-05-13T00:55:34.465Z,79.10
2019-05-13T00:58:04.619Z,80.00
2019-05-13T01:00:34.354Z,79.60
2019-05-13T01:03:24.627Z,79.70
2019-05-13T01:05:53.519Z,80.00
2019-05-13T01:08:23.644Z,80.50
2019-05-13T01:10:53.677Z,80.70
2019-05-13T01:13:23.788Z,81.30
2019-05-13T01:15:54.388Z,81.60
2019-05-13T01:18:23.397Z,81.40
2019-05-13T01:20:53.824Z,81.30
2019-05-13T01:23:24.028Z,81.90
2019-05-13T01:25:54.466Z,81.10
2019-05-13T01:28:23.928Z,81.30
2019-05-13T01:30:57.861Z,80.90
2019-05-13T01:33:26.502Z,80.40
2019-05-13T01:35:55.159Z,80.70
2019-05-13T01:38:24.208Z,80.50
2019-05-13T01:40:53.917Z,80.50
2019-05-13T01:43:24.433Z,80.70
2019-05-13T01:45:53.748Z,80.90
2019-05-13T01:48:24.136Z,80.90
2019-05-13T01:50:53.525Z,81.30
2019-05-13T01:53:24.218Z,81.40
2019-05-13T01:55:53.250Z,81.50
2019-05-13T01:58:23.614Z,82.00
2019-05-13T02:00:54.947Z,82.50
2019-05-13T02:03:24.657Z,82.80
2019-05-13T02:05:54.437Z,83.30
2019-05-13T02:08:24.490Z,83.60
2019-05-13T02:10:55.038Z,83.50
2019-05-13T02:13:25.216Z,83.40
2019-05-13T02:15:55.421Z,83.30
2019-05-13T02:18:24.897Z,83.50
2019-05-13T02:20:55.429Z,83.80
2019-05-13T02:23:24.408Z,83.90
2019-05-13T02:26:13.601Z,84.10
2019-05-13T02:28:43.594Z,83.40
2019-05-13T02:31:41.549Z,83.20
2019-05-13T02:34:02.715Z,83.10
2019-05-13T02:36:32.994Z,83.60
2019-05-13T02:39:02.678Z,84.20
2019-05-13T02:41:34.204Z,84.10
2019-05-13T02:44:03.549Z,84.70
2019-05-13T02:46:33.810Z,84.80
2019-05-13T02:49:03.156Z,84.90
2019-05-13T02:51:32.814Z,84.90
2019-05-13T02:54:03.515Z,85.00
2019-05-13T02:56:32.994Z,85.40
2019-05-13T02:59:03.778Z,84.90
2019-05-13T03:01:34.083Z,85.50
2019-05-13T03:04:03.269Z,85.40
2019-05-13T03:06:33.243Z,84.70
2019-05-13T03:09:03.124Z,85.20
2019-05-13T03:11:33.293Z,85.00
2019-05-13T03:14:03.572Z,84.90
2019-05-13T03:16:34.101Z,85.20
2019-05-13T03:19:03.047Z,85.10
2019-05-13T03:21:32.609Z,85.70
2019-05-13T03:24:03.527Z,85.70
2019-05-13T03:26:32.290Z,85.70
2019-05-13T03:29:02.774Z,85.40
2019-05-13T03:31:35.892Z,85.40
2019-05-13T03:34:06.434Z,85.40
2019-05-13T03:36:36.243Z,85.30
2019-05-13T03:39:10.375Z,85.40
2019-05-13T03:41:34.984Z,85.50
2019-05-13T03:44:06.711Z,85.20
2019-05-13T03:46:38.347Z,85.30
2019-05-13T03:49:13.282Z,85.10
2019-05-13T03:51:42.881Z,85.60
2019-05-13T03:54:12.877Z,85.90
2019-05-13T03:56:42.574Z,85.70
2019-05-13T03:59:13.283Z,85.80
2019-05-13T04:01:42.819Z,85.70
2019-05-13T04:04:12.753Z,85.80
2019-05-13T04:06:42.911Z,85.20
2019-05-13T04:09:25.188Z,85.50
2019-05-13T04:11:43.073Z,85.60
2019-05-13T04:14:12.590Z,86.20
2019-05-13T04:16:42.873Z,85.50
2019-05-13T04:19:12.392Z,85.50
2019-05-13T04:21:43.016Z,85.50
2019-05-13T04:24:12.337Z,85.50
2019-05-13T04:26:43.262Z,85.50
2019-05-13T04:29:13.311Z,85.30
2019-05-13T04:31:42.453Z,85.50
2019-05-13T04:34:12.375Z,86.00
2019-05-13T04:36:43.633Z,86.70
2019-05-13T04:39:12.883Z,85.60
2019-05-13T04:41:42.486Z,85.60
2019-05-13T04:44:13.019Z,85.50
2019-05-13T04:46:43.449Z,85.40
2019-05-13T04:49:12.733Z,85.30
2019-05-13T04:51:42.183Z,85.50
2019-05-13T04:54:13.006Z,85.60
2019-05-13T04:56:42.349Z,85.50
2019-05-13T04:59:12.453Z,85.70
2019-05-13T05:02:17.842Z,85.70
2019-05-13T05:04:58.322Z,85.70
2019-05-13T05:07:36.154Z,85.70
2019-05-13T05:10:34.670Z,85.80
2019-05-13T05:13:17.151Z,85.50
2019-05-13T05:16:23.806Z,86.30
2019-05-13T05:19:12.299Z,85.90
2019-05-13T05:22:13.484Z,86.10
2019-05-13T05:25:04.160Z,85.40
2019-05-13T05:28:02.156Z,85.80
2019-05-13T05:31:11.568Z,85.40
2019-05-13T05:34:06.540Z,85.50
2019-05-13T05:37:01.395Z,85.30
2019-05-13T05:39:31.565Z,85.00
2019-05-13T05:42:02.198Z,84.50
2019-05-13T05:44:33.136Z,84.40
2019-05-13T05:47:03.691Z,83.60
2019-05-13T05:49:32.882Z,83.60
2019-05-13T05:52:05.051Z,82.50
2019-05-13T05:54:39.053Z,82.70
2019-05-13T05:57:08.364Z,82.40
2019-05-13T05:59:38.418Z,81.80
2019-05-13T06:02:08.706Z,81.60
2019-05-13T06:04:38.526Z,81.50
2019-05-13T06:07:07.569Z,80.80
2019-05-13T06:09:36.248Z,80.40
2019-05-13T06:12:05.084Z,80.30
2019-05-13T06:14:33.822Z,80.00
2019-05-13T06:17:02.959Z,79.70
2019-05-13T06:19:32.307Z,79.80
2019-05-13T06:22:06.333Z,79.90
2019-05-13T06:24:34.942Z,79.30
2019-05-13T06:27:04.682Z,79.50
2019-05-13T06:29:34.024Z,79.40
2019-05-13T06:32:18.224Z,79.10
2019-05-13T06:34:33.959Z,78.30
2019-05-13T06:37:02.717Z,78.30
2019-05-13T06:39:31.967Z,78.30
2019-05-13T06:42:02.798Z,77.90
2019-05-13T06:44:31.776Z,77.90
2019-05-13T06:47:02.646Z,77.40
2019-05-13T06:49:32.262Z,76.60
2019-05-13T06:52:02.081Z,76.40
2019-05-13T06:54:33.304Z,76.40
2019-05-13T06:57:04.325Z,76.10
2019-05-13T06:59:31.897Z,75.20
2019-05-13T07:02:02.497Z,74.10
2019-05-13T07:04:32.685Z,73.70
2019-05-13T07:07:12.781Z,73.40
2019-05-13T07:09:32.491Z,72.10
2019-05-13T07:12:03.182Z,72.70
2019-05-13T07:14:32.566Z,72.50
2019-05-13T07:17:05.437Z,71.20
2019-05-13T07:19:34.054Z,69.80
2019-05-13T07:22:03.314Z,69.40
2019-05-13T07:24:32.832Z,69.20
2019-05-13T07:27:22.935Z,68.90
2019-05-13T07:29:55.562Z,68.30
2019-05-13T07:32:23.515Z,68.90
2019-05-13T07:34:53.160Z,68.40
2019-05-13T07:37:22.585Z,68.60
2019-05-13T07:39:53.041Z,68.30
2019-05-13T07:42:22.286Z,67.60
2019-05-13T07:44:52.209Z,67.00
2019-05-13T07:47:22.347Z,66.20
2019-05-13T07:49:51.645Z,65.50
2019-05-13T07:52:22.751Z,65.70
2019-05-13T07:54:52.059Z,66.20
2019-05-13T07:57:22.449Z,64.40
2019-05-13T07:59:52.389Z,63.70
2019-05-13T08:02:21.669Z,63.60
2019-05-13T08:04:52.934Z,64.30
2019-05-13T08:07:22.611Z,64.00
2019-05-13T08:09:55.662Z,63.40
2019-05-13T08:12:22.539Z,63.20
2019-05-13T08:14:57.008Z,62.70
2019-05-13T08:17:26.522Z,63.00
2019-05-13T08:19:55.233Z,62.80
2019-05-13T08:22:24.641Z,62.20
2019-05-13T08:24:54.436Z,61.80
2019-05-13T08:27:30.307Z,61.30
2019-05-13T08:29:53.592Z,61.40
2019-05-13T08:32:27.975Z,61.00
2019-05-13T08:35:01.568Z,60.90
2019-05-13T08:37:27.003Z,61.90
2019-05-13T08:39:57.191Z,61.80
2019-05-13T08:42:25.805Z,60.80
2019-05-13T08:44:54.558Z,60.70
2019-05-13T08:47:23.110Z,60.90
2019-05-13T08:49:52.250Z,61.20
2019-05-13T08:52:21.935Z,61.50
2019-05-13T08:54:52.537Z,60.40
2019-05-13T08:57:22.275Z,60.00
2019-05-13T08:59:51.710Z,59.40
2019-05-13T09:02:22.157Z,59.00
2019-05-13T09:04:51.569Z,59.30
2019-05-13T09:07:24.240Z,58.60
2019-05-13T09:09:51.670Z,58.60
2019-05-13T09:12:29.614Z,58.10
2019-05-13T09:14:52.506Z,56.00
2019-05-13T09:17:21.403Z,54.80
2019-05-13T09:19:51.944Z,55.90
2019-05-13T09:22:21.396Z,53.50
2019-05-13T09:24:52.845Z,53.90
2019-05-13T09:27:22.584Z,53.70
2019-05-13T09:29:52.795Z,50.60
2019-05-13T09:32:33.853Z,50.50
2019-05-13T09:35:03.121Z,51.30
2019-05-13T09:37:32.592Z,50.70
2019-05-13T09:40:02.430Z,50.60
2019-05-13T09:42:47.073Z,53.50
2019-05-13T09:45:02.334Z,53.40
2019-05-13T09:47:32.159Z,53.70
2019-05-13T09:50:01.138Z,53.20
2019-05-13T09:52:32.030Z,54.00
2019-05-13T09:55:03.027Z,52.70
2019-05-13T09:57:32.127Z,52.80
2019-05-13T10:00:01.770Z,53.00
2019-05-13T10:02:32.078Z,52.80
2019-05-13T10:05:03.138Z,53.10
2019-05-13T10:07:31.995Z,52.30
2019-05-13T10:10:01.890Z,52.40
2019-05-13T10:12:31.981Z,51.90
2019-05-13T10:15:02.151Z,52.70
2019-05-13T10:17:31.912Z,53.00
2019-05-13T10:20:00.919Z,53.00
2019-05-13T10:22:31.783Z,53.40
2019-05-13T10:25:02.286Z,52.90
2019-05-13T10:27:32.529Z,53.50
2019-05-13T10:30:02.381Z,53.60
2019-05-13T10:32:32.518Z,53.50
2019-05-13T10:35:03.324Z,53.70
2019-05-13T10:37:32.595Z,53.90
2019-05-13T10:40:03.309Z,54.00
2019-05-13T10:42:31.829Z,53.10
2019-05-13T10:45:02.481Z,53.30
2019-05-13T10:47:30.751Z,52.80
2019-05-13T10:50:02.575Z,52.70
2019-05-13T10:52:32.261Z,52.60
2019-05-13T10:55:01.911Z,52.90
2019-05-13T10:57:31.815Z,52.90
2019-05-13T11:00:03.410Z,52.60
2019-05-13T11:02:32.906Z,52.50
2019-05-13T11:05:03.213Z,52.10
2019-05-13T11:07:32.223Z,53.10
2019-05-13T11:10:02.849Z,52.80
2019-05-13T11:12:33.554Z,52.30
2019-05-13T11:15:03.046Z,51.30
2019-05-13T11:17:33.231Z,51.50
2019-05-13T11:20:03.998Z,52.50
2019-05-13T11:22:32.821Z,52.20
2019-05-13T11:25:01.697Z,53.40
2019-05-13T11:27:32.354Z,52.40
2019-05-13T11:30:05.530Z,51.80
2019-05-13T11:32:32.914Z,51.70
2019-05-13T11:35:02.402Z,52.10
2019-05-13T11:37:32.066Z,51.50
2019-05-13T11:40:03.833Z,51.30
2019-05-13T11:42:39.553Z,50.70
2019-05-13T11:45:11.696Z,50.30
2019-05-13T11:47:52.214Z,50.80
2019-05-13T11:50:22.337Z,50.90
2019-05-13T11:52:52.515Z,50.70
2019-05-13T11:55:23.016Z,51.50
2019-05-13T11:57:53.137Z,50.00
2019-05-13T12:00:42.682Z,49.20
2019-05-13T12:03:11.457Z,48.80
2019-05-13T12:05:42.159Z,49.40
2019-05-13T12:08:12.659Z,48.50
2019-05-13T12:10:43.929Z,49.30
2019-05-13T12:13:12.508Z,49.90
2019-05-13T12:15:48.748Z,49.20
2019-05-13T12:18:13.798Z,49.60
2019-05-13T12:20:42.827Z,47.90
2019-05-13T12:23:18.955Z,48.10
2019-05-13T12:25:47.565Z,49.10
2019-05-13T12:28:16.161Z,48.40
2019-05-13T12:30:45.049Z,47.10
2019-05-13T12:33:14.802Z,48.10
2019-05-13T12:35:44.959Z,47.10
2019-05-13T12:38:13.916Z,47.20
2019-05-13T12:40:43.186Z,45.80
2019-05-13T12:43:13.238Z,46.10
2019-05-13T12:45:43.392Z,45.60
2019-05-13T12:48:14.112Z,44.40
2019-05-13T12:50:43.404Z,43.90
2019-05-13T12:53:12.945Z,43.40
2019-05-13T12:55:41.775Z,44.10
2019-05-13T12:58:12.074Z,44.00
2019-05-13T13:00:43.397Z,43.50
2019-05-13T13:03:13.288Z,43.10
2019-05-13T13:05:43.210Z,42.80
2019-05-13T13:08:21.699Z,43.30
2019-05-13T13:10:42.469Z,43.70
2019-05-13T13:13:11.508Z,44.50
2019-05-13T13:15:43.471Z,44.70
2019-05-13T13:18:14.501Z,44.00
2019-05-13T13:20:42.377Z,44.70
2019-05-13T13:23:12.858Z,44.30
2019-05-13T13:25:44.169Z,45.20
2019-05-13T13:28:15.495Z,44.90
2019-05-13T13:31:04.128Z,45.20
2019-05-13T13:33:34.507Z,45.00
2019-05-13T13:36:05.245Z,44.20
2019-05-13T13:38:33.989Z,45.10
2019-05-13T13:41:03.909Z,44.90
2019-05-13T13:43:37.039Z,45.00
2019-05-13T13:46:11.573Z,44.50
2019-05-13T13:48:33.695Z,45.50
2019-05-13T13:51:04.795Z,45.60
2019-05-13T13:53:33.308Z,45.60
2019-05-13T13:56:02.742Z,45.30
2019-05-13T13:58:32.753Z,45.50
2019-05-13T14:01:10.478Z,45.50
2019-05-13T14:03:33.838Z,45.70
2019-05-13T14:06:06.144Z,46.10
2019-05-13T14:08:36.887Z,46.10
2019-05-13T14:11:05.475Z,46.00
2019-05-13T14:13:34.100Z,45.70
2019-05-13T14:16:02.755Z,45.60
2019-05-13T14:18:31.883Z,43.40
2019-05-13T14:21:03.137Z,44.10
2019-05-13T14:23:31.799Z,45.00
2019-05-13T14:26:01.157Z,45.30
2019-05-13T14:28:32.526Z,45.20
2019-05-13T14:31:01.889Z,45.10
2019-05-13T14:33:32.636Z,45.50
2019-05-13T14:36:01.860Z,45.70
2019-05-13T14:38:32.677Z,44.70
2019-05-13T14:41:03.019Z,45.90
2019-05-13T14:43:32.197Z,44.80
2019-05-13T14:46:02.467Z,44.90
2019-05-13T14:48:32.876Z,45.30
2019-05-13T14:51:02.171Z,45.30
2019-05-13T14:53:32.070Z,45.50
2019-05-13T14:56:03.040Z,45.50
2019-05-13T14:58:41.686Z,44.40
2019-05-13T15:01:14.953Z,44.10
2019-05-13T15:03:34.324Z,44.00
2019-05-13T15:06:03.444Z,44.20
2019-05-13T15:08:33.096Z,45.10
2019-05-13T15:11:02.099Z,45.80
2019-05-13T15:13:31.921Z,44.00
2019-05-13T15:16:01.357Z,43.60
2019-05-13T15:18:32.537Z,44.60
2019-05-13T15:21:01.916Z,45.40
2019-05-13T15:23:32.182Z,45.00
2019-05-13T15:26:02.390Z,44.20
2019-05-13T15:28:31.880Z,44.30
2019-05-13T15:31:00.865Z,43.20
2019-05-13T15:33:32.603Z,44.00
2019-05-13T15:36:02.286Z,44.50
2019-05-13T15:38:32.158Z,44.60
2019-05-13T15:41:01.901Z,45.00
2019-05-13T15:43:31.849Z,43.90
2019-05-13T15:46:01.726Z,44.00
2019-05-13T15:48:31.566Z,43.80
2019-05-13T15:51:02.145Z,44.20
2019-05-13T15:53:32.018Z,43.40
2019-05-13T15:56:02.533Z,44.90
2019-05-13T15:58:39.393Z,42.80
2019-05-13T16:01:03.106Z,43.80
2019-05-13T16:03:31.916Z,42.70
2019-05-13T16:06:01.945Z,43.00
2019-05-13T16:08:31.836Z,42.30
2019-05-13T16:11:02.402Z,43.00
2019-05-13T16:13:31.943Z,43.60
2019-05-13T16:16:01.668Z,43.60
2019-05-13T16:18:31.620Z,43.20
2019-05-13T16:21:01.586Z,43.50
2019-05-13T16:23:32.282Z,43.60
2019-05-13T16:26:01.729Z,43.30
2019-05-13T16:28:32.672Z,43.80
2019-05-13T16:31:04.924Z,43.40
2019-05-13T16:33:31.459Z,42.60
2019-05-13T16:36:02.734Z,42.60
2019-05-13T16:38:32.905Z,43.60
2019-05-13T16:41:01.599Z,43.10
2019-05-13T16:43:31.969Z,43.20
2019-05-13T16:46:01.216Z,44.50
2019-05-13T16:48:32.093Z,44.50
2019-05-13T16:51:00.150Z,43.80
2019-05-13T16:53:31.248Z,43.30
2019-05-13T16:56:01.495Z,43.80
2019-05-13T16:58:29.311Z,43.80
2019-05-13T17:00:58.334Z,44.00
2019-05-13T17:03:26.895Z,43.80
2019-05-13T17:05:55.897Z,44.10
2019-05-13T17:08:24.673Z,44.50
2019-05-13T17:10:53.269Z,43.80
2019-05-13T17:13:22.215Z,44.10
2019-05-13T17:15:52.262Z,43.50
2019-05-13T17:18:22.068Z,43.60
2019-05-13T17:20:52.062Z,43.10
2019-05-13T17:23:21.145Z,44.10
2019-05-13T17:25:52.045Z,43.70
2019-05-13T17:28:21.863Z,44.80
2019-05-13T17:31:11.526Z,44.50
2019-05-13T17:33:39.879Z,44.70
2019-05-13T17:36:08.431Z,44.80
2019-05-13T17:38:37.107Z,43.80
2019-05-13T17:41:06.058Z,45.10
2019-05-13T17:43:34.677Z,44.20
2019-05-13T17:46:03.553Z,43.70
2019-05-13T17:48:33.243Z,43.50
2019-05-13T17:51:02.062Z,43.80
2019-05-13T17:53:32.520Z,44.50
2019-05-13T17:56:02.427Z,44.20
2019-05-13T17:58:31.516Z,43.30
2019-05-13T18:01:01.612Z,43.10
2019-05-13T18:03:32.332Z,43.50
2019-05-13T18:06:02.323Z,43.90
2019-05-13T18:08:32.183Z,44.50
2019-05-13T18:11:02.545Z,44.20
2019-05-13T18:13:32.023Z,44.00
2019-05-13T18:16:02.451Z,43.90
2019-05-13T18:18:40.469Z,43.80
2019-05-13T18:21:01.834Z,44.20
2019-05-13T18:23:30.715Z,44.40
2019-05-13T18:26:05.038Z,44.70
2019-05-13T18:28:33.617Z,44.10
2019-05-13T18:31:02.170Z,44.60
2019-05-13T18:33:31.989Z,44.60
2019-05-13T18:36:02.128Z,44.90
2019-05-13T18:38:31.295Z,45.20
2019-05-13T18:41:01.973Z,45.30
2019-05-13T18:43:32.108Z,45.00
2019-05-13T18:46:02.083Z,45.20
2019-05-13T18:48:32.251Z,45.70
2019-05-13T18:51:02.622Z,45.80
2019-05-13T18:53:32.067Z,45.70
2019-05-13T18:56:02.005Z,46.00
2019-05-13T18:58:31.658Z,46.30
2019-05-13T19:01:01.471Z,46.80
2019-05-13T19:03:32.311Z,47.50
2019-05-13T19:06:00.575Z,47.90
2019-05-13T19:08:31.865Z,48.30
2019-05-13T19:11:01.218Z,48.30
2019-05-13T19:13:32.428Z,48.50
2019-05-13T19:16:02.377Z,49.00
2019-05-13T19:18:35.786Z,49.10
2019-05-13T19:21:04.375Z,49.40
2019-05-13T19:23:33.042Z,48.80
2019-05-13T19:26:02.085Z,49.00
2019-05-13T19:28:36.256Z,49.70
2019-05-13T19:31:04.879Z,50.10
2019-05-13T19:33:33.742Z,50.20
2019-05-13T19:36:02.420Z,50.50
2019-05-13T19:38:31.868Z,51.00
2019-05-13T19:41:01.795Z,51.60
2019-05-13T19:43:31.421Z,51.90
2019-05-13T19:46:01.478Z,52.30
2019-05-13T19:48:33.468Z,52.70
2019-05-13T19:51:03.566Z,52.70
2019-05-13T19:53:32.203Z,53.10
2019-05-13T19:56:01.544Z,53.40
2019-05-13T19:58:32.387Z,53.40
2019-05-13T20:01:00.978Z,52.60
2019-05-13T20:03:31.707Z,53.20
2019-05-13T20:06:01.916Z,53.30
2019-05-13T20:08:32.026Z,53.60
2019-05-13T20:11:02.132Z,54.00
2019-05-13T20:13:30.879Z,54.20
2019-05-13T20:16:01.431Z,53.70
2019-05-13T20:18:31.975Z,54.30
2019-05-13T20:21:01.249Z,54.50
2019-05-13T20:23:31.968Z,54.50
2019-05-13T20:26:00.414Z,53.70
2019-05-13T20:28:31.482Z,54.30
2019-05-13T20:31:01.758Z,54.40
2019-05-13T20:33:31.975Z,54.00
2019-05-13T20:36:01.617Z,54.20
2019-05-13T20:38:31.652Z,54.30
2019-05-13T20:41:01.314Z,55.20
2019-05-13T20:43:32.548Z,56.00
2019-05-13T20:46:01.951Z,56.60
2019-05-13T20:48:32.032Z,57.20
2019-05-13T20:51:02.597Z,57.70
2019-05-13T20:53:31.402Z,58.20
2019-05-13T20:56:01.793Z,58.60
2019-05-13T20:58:33.307Z,58.40
2019-05-13T21:01:02.582Z,58.40
2019-05-13T21:03:33.280Z,59.10
2019-05-13T21:06:02.049Z,58.70
2019-05-13T21:08:32.287Z,59.00
2019-05-13T21:11:02.240Z,59.20
2019-05-13T21:13:31.884Z,59.40
2019-05-13T21:16:02.538Z,59.10
2019-05-13T21:18:31.778Z,59.20
2019-05-13T21:21:00.851Z,59.50
2019-05-13T21:23:35.196Z,59.70
2019-05-13T21:26:05.127Z,59.80
2019-05-13T21:28:33.866Z,60.30
2019-05-13T21:31:02.404Z,60.60
2019-05-13T21:33:32.223Z,61.10
2019-05-13T21:36:01.807Z,61.70
2019-05-13T21:38:32.428Z,61.70
2019-05-13T21:41:01.811Z,62.00
2019-05-13T21:43:32.333Z,62.30
2019-05-13T21:46:01.967Z,62.40
2019-05-13T21:48:36.598Z,63.10
2019-05-13T21:51:05.204Z,64.00
2019-05-13T21:53:33.896Z,62.70
2019-05-13T21:56:02.607Z,63.50
2019-05-13T21:58:36.735Z,64.50
2019-05-13T22:01:04.970Z,64.60
2019-05-13T22:03:33.700Z,65.40
2019-05-13T22:06:02.555Z,65.80
2019-05-13T22:08:32.237Z,65.40
2019-05-13T22:11:06.904Z,64.10
2019-05-13T22:13:35.866Z,62.80
2019-05-13T22:16:04.522Z,62.50
2019-05-13T22:18:33.115Z,62.10
2019-05-13T22:21:01.822Z,61.40
2019-05-13T22:23:32.165Z,60.70
2019-05-13T22:26:01.830Z,61.60
2019-05-13T22:28:31.426Z,61.20
2019-05-13T22:31:01.769Z,62.00
2019-05-13T22:33:32.392Z,61.20
2019-05-13T22:36:01.804Z,61.30
2019-05-13T22:38:32.287Z,61.30
2019-05-13T22:41:01.943Z,61.70
2019-05-13T22:43:32.073Z,63.10
2019-05-13T22:46:01.075Z,63.00
2019-05-13T22:48:31.785Z,63.10
2019-05-13T22:51:01.371Z,63.90
2019-05-13T22:53:31.937Z,64.70
2019-05-13T22:56:01.113Z,63.90
2019-05-13T22:58:32.444Z,63.00
2019-05-13T23:01:02.527Z,62.50
2019-05-13T23:03:32.384Z,62.80
2019-05-13T23:06:01.644Z,62.60
2019-05-13T23:08:40.914Z,62.70
2019-05-13T23:11:09.496Z,62.60
2019-05-13T23:13:38.038Z,63.50
2019-05-13T23:16:06.768Z,64.20
2019-05-13T23:18:35.406Z,64.20
2019-05-13T23:21:04.068Z,64.50
2019-05-13T23:23:32.635Z,65.60
2019-05-13T23:26:01.367Z,66.90
2019-05-13T23:28:32.096Z,68.50
2019-05-13T23:31:01.710Z,69.30
2019-05-13T23:33:31.372Z,69.80
2019-05-13T23:36:01.505Z,70.30
2019-05-13T23:38:31.988Z,70.70
2019-05-13T23:41:02.079Z,70.80
2019-05-13T23:43:31.209Z,70.80
2019-05-13T23:46:01.188Z,70.60
2019-05-13T23:48:32.121Z,71.30
2019-05-13T23:51:01.319Z,71.40
2019-05-13T23:53:31.529Z,71.00
2019-05-13T23:56:02.011Z,71.50
2019-05-13T23:58:32.115Z,71.90
